createdAt,value
2023-01-25T00:01:09.410Z,6.07
2023-01-25T00:03:36.815Z,6.43
2023-01-25T00:06:04.627Z,5.10
2023-01-25T00:08:32.037Z,4.95
2023-01-25T00:10:59.426Z,4.82
2023-01-25T00:13:28.228Z,5.38
2023-01-25T00:16:01.097Z,5.32
2023-01-25T00:18:28.503Z,5.20
2023-01-25T00:20:55.870Z,6.28
2023-01-25T00:23:23.242Z,5.45
2023-01-25T00:25:50.607Z,5.63
2023-01-25T00:28:17.989Z,5.53
2023-01-25T00:30:46.665Z,5.13
2023-01-25T00:33:34.213Z,5.70
2023-01-25T00:36:01.607Z,6.82
2023-01-25T00:38:30.873Z,6.18
2023-01-25T00:40:58.426Z,6.63
2023-01-25T00:43:25.800Z,6.10
2023-01-25T00:46:01.353Z,5.85
2023-01-25T00:48:28.772Z,5.95
2023-01-25T00:50:56.144Z,6.00
2023-01-25T00:53:23.543Z,6.53
2023-01-25T00:55:52.807Z,6.35
2023-01-25T00:58:20.185Z,6.07
2023-01-25T01:00:47.578Z,6.88
2023-01-25T01:03:16.765Z,8.55
2023-01-25T01:05:44.144Z,4.75
2023-01-25T01:08:16.567Z,6.95
2023-01-25T01:10:44.008Z,5.95
2023-01-25T01:13:11.382Z,6.25
2023-01-25T01:15:38.751Z,6.20
2023-01-25T01:18:06.245Z,7.55
2023-01-25T01:20:34.928Z,7.10
2023-01-25T01:23:02.308Z,6.50
2023-01-25T01:25:29.700Z,6.15
2023-01-25T01:27:57.076Z,7.00
2023-01-25T01:30:24.545Z,6.45
2023-01-25T01:32:52.203Z,7.68
2023-01-25T01:35:19.613Z,7.63
2023-01-25T01:37:48.278Z,7.22
2023-01-25T01:40:16.081Z,6.43
2023-01-25T01:43:04.844Z,6.50
2023-01-25T01:45:50.599Z,7.65
2023-01-25T01:48:18.120Z,7.05
2023-01-25T01:50:45.512Z,7.10
2023-01-25T01:53:14.228Z,7.45
2023-01-25T01:55:41.608Z,6.93
2023-01-25T01:58:08.980Z,6.65
2023-01-25T02:00:37.379Z,6.97
2023-01-25T02:03:04.899Z,7.68
2023-01-25T02:05:33.512Z,6.70
2023-01-25T02:08:00.888Z,7.03
2023-01-25T02:10:29.576Z,6.78
2023-01-25T02:12:56.984Z,7.05
2023-01-25T02:15:24.366Z,6.60
2023-01-25T02:17:51.744Z,7.45
2023-01-25T02:20:22.256Z,6.78
2023-01-25T02:22:52.882Z,7.05
2023-01-25T02:25:21.695Z,6.93
2023-01-25T02:27:50.554Z,7.32
2023-01-25T02:30:17.978Z,6.18
2023-01-25T02:32:45.374Z,7.40
2023-01-25T02:35:19.914Z,6.57
2023-01-25T02:37:47.378Z,6.53
2023-01-25T02:40:14.750Z,6.47
2023-01-25T02:42:44.477Z,7.25
2023-01-25T02:45:14.246Z,7.45
2023-01-25T02:47:41.595Z,7.57
2023-01-25T02:50:10.221Z,6.93
2023-01-25T02:52:37.584Z,6.88
2023-01-25T02:55:05.816Z,7.15
2023-01-25T02:57:33.369Z,6.93
2023-01-25T03:00:02.111Z,7.28
2023-01-25T03:02:29.520Z,6.90
2023-01-25T03:04:56.900Z,6.65
2023-01-25T03:07:24.298Z,6.90
2023-01-25T03:09:51.690Z,7.97
2023-01-25T03:12:19.071Z,6.95
2023-01-25T03:14:46.445Z,6.40
2023-01-25T03:17:15.115Z,6.40
2023-01-25T03:19:42.485Z,6.50
2023-01-25T03:22:10.965Z,6.65
2023-01-25T03:24:38.334Z,6.20
2023-01-25T03:27:11.723Z,7.10
2023-01-25T03:29:39.115Z,6.10
2023-01-25T03:32:06.683Z,6.90
2023-01-25T03:34:35.566Z,6.90
2023-01-25T03:37:02.948Z,7.68
2023-01-25T03:39:30.381Z,6.78
2023-01-25T03:41:57.749Z,6.40
2023-01-25T03:44:25.295Z,6.00
2023-01-25T03:46:52.701Z,7.15
2023-01-25T03:49:20.094Z,6.43
2023-01-25T03:51:48.795Z,7.03
2023-01-25T03:54:16.163Z,8.02
2023-01-25T03:56:43.527Z,7.00
2023-01-25T03:59:11.612Z,6.93
2023-01-25T04:01:38.999Z,8.50
2023-01-25T04:04:06.398Z,7.28
2023-01-25T04:06:33.783Z,6.80
2023-01-25T04:09:02.507Z,7.15
2023-01-25T04:11:29.901Z,7.03
2023-01-25T04:13:57.274Z,6.75
2023-01-25T04:16:24.672Z,7.82
2023-01-25T04:18:52.066Z,6.95
2023-01-25T04:21:19.452Z,7.68
2023-01-25T04:23:46.862Z,6.70
2023-01-25T04:26:15.609Z,7.15
2023-01-25T04:28:42.969Z,7.97
2023-01-25T04:31:11.170Z,8.23
2023-01-25T04:33:38.546Z,7.43
2023-01-25T04:36:06.402Z,7.97
2023-01-25T04:38:33.790Z,8.05
2023-01-25T04:41:01.169Z,8.02
2023-01-25T04:43:29.869Z,7.78
2023-01-25T04:45:57.286Z,6.82
2023-01-25T04:48:24.679Z,7.72
2023-01-25T04:50:52.054Z,7.68
2023-01-25T04:53:19.415Z,7.10
2023-01-25T04:55:47.470Z,6.93
2023-01-25T04:58:14.959Z,7.40
2023-01-25T05:00:43.648Z,7.82
2023-01-25T05:03:11.012Z,7.43
2023-01-25T05:05:38.394Z,8.02
2023-01-25T05:08:06.154Z,8.35
2023-01-25T05:10:33.526Z,7.43
2023-01-25T05:13:02.370Z,7.18
2023-01-25T05:15:29.736Z,7.72
2023-01-25T05:17:58.431Z,7.15
2023-01-25T05:20:25.811Z,7.82
2023-01-25T05:22:53.184Z,7.75
2023-01-25T05:25:37.863Z,7.65
2023-01-25T05:28:05.556Z,7.22
2023-01-25T05:30:32.982Z,7.43
2023-01-25T05:33:01.694Z,8.45
2023-01-25T05:35:29.290Z,6.75
2023-01-25T05:37:59.736Z,7.53
2023-01-25T05:40:27.211Z,6.78
2023-01-25T05:42:55.700Z,6.93
2023-01-25T05:45:23.075Z,6.43
2023-01-25T05:47:53.470Z,7.55
2023-01-25T05:50:22.180Z,7.55
2023-01-25T05:52:49.566Z,8.15
2023-01-25T05:55:17.117Z,7.18
2023-01-25T05:57:44.620Z,9.13
2023-01-25T06:00:12.838Z,7.60
2023-01-25T06:02:40.416Z,6.75
2023-01-25T06:05:09.417Z,7.38
2023-01-25T06:07:38.354Z,7.35
2023-01-25T06:10:07.169Z,7.60
2023-01-25T06:12:34.998Z,7.38
2023-01-25T06:15:02.395Z,7.00
2023-01-25T06:17:29.774Z,9.13
2023-01-25T06:19:57.155Z,6.93
2023-01-25T06:22:24.513Z,7.03
2023-01-25T06:24:53.189Z,8.77
2023-01-25T06:27:21.146Z,21.38
2023-01-25T06:29:48.516Z,14.18
2023-01-25T06:32:15.955Z,11.27
2023-01-25T06:34:43.408Z,11.02
2023-01-25T06:37:10.850Z,12.10
2023-01-25T06:39:38.223Z,12.82
2023-01-25T06:42:06.935Z,11.40
2023-01-25T06:44:34.792Z,11.50
2023-01-25T06:47:02.179Z,12.48
2023-01-25T06:49:29.536Z,9.50
2023-01-25T06:51:56.907Z,8.43
2023-01-25T06:54:24.309Z,8.65
2023-01-25T06:56:51.702Z,10.02
2023-01-25T06:59:20.593Z,9.70
2023-01-25T07:01:47.997Z,9.50
2023-01-25T07:04:15.407Z,8.73
2023-01-25T07:06:42.828Z,8.30
2023-01-25T07:09:11.419Z,7.47
2023-01-25T07:11:38.809Z,7.25
2023-01-25T07:14:06.301Z,8.20
2023-01-25T07:16:38.311Z,9.43
2023-01-25T07:19:05.825Z,7.20
2023-01-25T07:21:33.309Z,6.97
2023-01-25T07:24:01.059Z,7.05
2023-01-25T07:26:28.437Z,7.82
2023-01-25T07:28:55.823Z,8.98
2023-01-25T07:31:23.341Z,6.70
2023-01-25T07:33:52.350Z,6.78
2023-01-25T07:36:19.819Z,9.82
2023-01-25T07:38:47.199Z,7.38
2023-01-25T07:41:16.219Z,7.55
2023-01-25T07:43:43.626Z,8.68
2023-01-25T07:46:12.003Z,7.57
2023-01-25T07:48:39.547Z,6.95
2023-01-25T07:51:22.512Z,6.25
2023-01-25T07:53:51.167Z,7.13
2023-01-25T07:56:19.277Z,11.07
2023-01-25T07:58:46.734Z,9.60
2023-01-25T08:01:14.831Z,13.60
2023-01-25T08:06:05.155Z,11.95
2023-01-25T08:08:34.517Z,10.70
2023-01-25T08:11:01.923Z,18.45
2023-01-25T08:13:29.307Z,9.60
2023-01-25T08:15:56.765Z,7.82
2023-01-25T08:18:25.448Z,9.13
2023-01-25T08:20:52.814Z,8.45
2023-01-25T08:23:20.404Z,7.60
2023-01-25T08:25:49.088Z,10.45
2023-01-25T08:28:16.611Z,10.15
2023-01-25T08:30:56.483Z,8.45
2023-01-25T08:33:24.621Z,7.63
2023-01-25T08:35:55.689Z,8.90
2023-01-25T08:38:23.065Z,6.60
2023-01-25T08:40:51.777Z,6.75
2023-01-25T08:43:19.166Z,8.80
2023-01-25T08:45:46.554Z,8.10
2023-01-25T08:48:15.695Z,6.85
2023-01-25T08:50:47.027Z,6.70
2023-01-25T08:53:14.417Z,9.23
2023-01-25T08:55:42.891Z,8.90
2023-01-25T08:58:12.285Z,6.47
2023-01-25T09:00:39.900Z,7.50
2023-01-25T09:03:07.568Z,6.78
2023-01-25T09:05:35.019Z,9.25
2023-01-25T09:08:02.574Z,4.97
2023-01-25T09:10:29.953Z,6.07
2023-01-25T09:12:57.321Z,5.20
2023-01-25T09:15:26.073Z,7.65
2023-01-25T09:17:53.596Z,8.00
2023-01-25T09:20:21.002Z,6.53
2023-01-25T09:22:48.436Z,9.70
2023-01-25T09:25:15.848Z,7.43
2023-01-25T09:27:43.325Z,6.72
2023-01-25T09:30:18.356Z,8.05
2023-01-25T09:32:49.706Z,5.90
2023-01-25T09:35:17.283Z,10.25
2023-01-25T09:37:44.686Z,9.85
2023-01-25T09:40:15.012Z,11.60
2023-01-25T09:42:57.689Z,8.73
2023-01-25T09:45:30.431Z,10.05
2023-01-25T09:48:01.843Z,7.75
2023-01-25T09:50:38.203Z,10.73
2023-01-25T09:53:19.716Z,8.63
2023-01-25T09:55:53.884Z,6.53
2023-01-25T09:58:22.613Z,6.47
2023-01-25T10:00:51.090Z,8.70
2023-01-25T10:03:22.203Z,6.72
2023-01-25T10:05:50.716Z,8.27
2023-01-25T10:08:21.623Z,9.52
2023-01-25T10:10:49.861Z,13.75
2023-01-25T10:13:19.663Z,8.18
2023-01-25T10:15:48.909Z,9.23
2023-01-25T10:18:20.073Z,8.07
2023-01-25T10:20:50.650Z,8.57
2023-01-25T10:23:28.949Z,10.95
2023-01-25T10:25:58.369Z,8.15
2023-01-25T10:28:31.756Z,7.57
2023-01-25T10:31:00.691Z,10.23
2023-01-25T10:33:28.155Z,9.68
2023-01-25T10:35:57.860Z,8.38
2023-01-25T10:38:26.535Z,7.60
2023-01-25T10:40:55.460Z,9.45
2023-01-25T10:43:22.958Z,7.05
2023-01-25T10:45:50.541Z,7.43
2023-01-25T10:48:20.419Z,13.10
2023-01-25T10:50:49.626Z,7.55
2023-01-25T10:53:26.571Z,7.40
2023-01-25T10:56:12.978Z,8.35
2023-01-25T10:58:41.193Z,7.32
2023-01-25T11:01:09.987Z,9.70
2023-01-25T11:03:38.676Z,9.23
2023-01-25T11:06:06.500Z,9.25
2023-01-25T11:08:36.643Z,8.23
2023-01-25T11:13:42.494Z,6.28
2023-01-25T11:16:21.383Z,6.45
2023-01-25T11:18:52.351Z,9.30
2023-01-25T11:21:22.185Z,7.38
2023-01-25T11:24:00.697Z,7.55
2023-01-25T11:26:28.174Z,7.10
2023-01-25T11:29:08.099Z,7.45
2023-01-25T11:31:35.771Z,8.55
2023-01-25T11:34:03.202Z,7.20
2023-01-25T11:36:34.043Z,6.78
2023-01-25T11:39:11.222Z,7.43
2023-01-25T11:41:44.105Z,7.38
2023-01-25T11:44:35.454Z,7.32
2023-01-25T11:47:04.955Z,8.57
2023-01-25T11:49:38.235Z,6.88
2023-01-25T11:52:10.294Z,7.53
2023-01-25T11:54:43.736Z,8.00
2023-01-25T11:57:33.876Z,7.00
2023-01-25T12:02:50.817Z,7.80
2023-01-25T12:05:25.311Z,8.82
2023-01-25T12:07:57.610Z,7.47
2023-01-25T12:10:29.529Z,8.05
2023-01-25T12:12:58.744Z,7.60
2023-01-25T12:15:42.248Z,6.43
2023-01-25T12:18:30.584Z,5.60
2023-01-25T12:21:08.120Z,8.43
2023-01-25T12:23:37.907Z,6.38
2023-01-25T12:26:11.872Z,4.72
2023-01-25T12:28:40.945Z,6.07
2023-01-25T12:31:11.090Z,5.95
2023-01-25T12:33:39.787Z,6.22
2023-01-25T12:36:08.524Z,5.95
2023-01-25T12:38:38.590Z,6.80
2023-01-25T12:43:39.161Z,6.60
2023-01-25T12:46:12.756Z,7.00
2023-01-25T12:48:42.120Z,6.32
2023-01-25T12:51:09.490Z,6.95
2023-01-25T12:53:37.977Z,5.35
2023-01-25T12:56:05.830Z,5.97
2023-01-25T12:58:38.506Z,4.85
2023-01-25T13:01:10.118Z,6.03
2023-01-25T13:03:41.328Z,5.05
2023-01-25T13:06:14.195Z,6.05
2023-01-25T13:08:48.933Z,6.70
2023-01-25T13:11:19.244Z,5.20
2023-01-25T13:16:40.967Z,6.00
2023-01-25T13:19:19.754Z,7.85
2023-01-25T13:21:47.992Z,28.35
2023-01-25T13:24:20.035Z,33.88
2023-01-25T13:27:06.254Z,35.80
2023-01-25T13:29:47.015Z,32.13
2023-01-25T13:32:15.088Z,28.17
2023-01-25T13:34:58.660Z,26.63
2023-01-25T13:37:26.552Z,24.52
2023-01-25T13:39:53.970Z,21.10
2023-01-25T13:42:22.890Z,20.52
2023-01-25T13:44:52.201Z,20.40
2023-01-25T13:47:21.401Z,19.40
2023-01-25T13:49:50.372Z,19.38
2023-01-25T13:52:18.673Z,22.23
2023-01-25T13:54:46.179Z,16.30
2023-01-25T13:57:14.476Z,18.20
2023-01-25T13:59:41.875Z,14.63
2023-01-25T14:02:14.737Z,367.23
2023-01-25T14:04:42.326Z,173.48
2023-01-25T14:07:13.318Z,116.03
2023-01-25T14:09:41.556Z,122.88
2023-01-25T14:12:10.881Z,101.07
2023-01-25T14:14:38.677Z,92.53
2023-01-25T14:17:15.938Z,85.47
2023-01-25T14:19:44.430Z,83.07
2023-01-25T14:22:20.822Z,67.90
2023-01-25T14:25:08.579Z,66.10
2023-01-25T14:27:36.045Z,50.67
2023-01-25T14:30:04.150Z,73.82
2023-01-25T14:32:32.836Z,413.40
2023-01-25T14:35:00.255Z,356.10
2023-01-25T14:37:27.666Z,367.98
2023-01-25T14:39:55.045Z,334.83
2023-01-25T14:42:22.410Z,316.25
2023-01-25T14:44:49.791Z,288.40
2023-01-25T14:47:21.492Z,275.67
2023-01-25T14:49:50.267Z,207.00
2023-01-25T14:52:19.207Z,172.68
2023-01-25T14:54:48.577Z,183.25
2023-01-25T14:57:30.550Z,139.95
2023-01-25T14:59:57.928Z,145.05
2023-01-25T15:02:26.526Z,137.15
2023-01-25T15:04:57.246Z,78.28
2023-01-25T15:07:37.076Z,69.32
2023-01-25T15:10:05.416Z,72.35
2023-01-25T15:12:33.677Z,61.90
2023-01-25T15:15:02.634Z,62.30
2023-01-25T15:17:40.703Z,58.88
2023-01-25T15:20:36.494Z,48.08
2023-01-25T15:23:21.642Z,46.42
2023-01-25T15:25:53.027Z,44.60
2023-01-25T15:28:20.441Z,39.65
2023-01-25T15:30:48.011Z,36.80
2023-01-25T15:33:18.973Z,34.67
2023-01-25T15:35:47.955Z,34.35
2023-01-25T15:38:15.374Z,30.65
2023-01-25T15:40:43.125Z,29.38
2023-01-25T15:43:11.766Z,27.88
2023-01-25T15:45:39.471Z,24.85
2023-01-25T15:48:06.901Z,25.77
2023-01-25T15:50:34.344Z,23.83
2023-01-25T15:53:03.016Z,21.05
2023-01-25T15:55:30.428Z,20.55
2023-01-25T15:57:58.166Z,20.23
2023-01-25T16:00:25.621Z,19.60
2023-01-25T16:02:53.000Z,18.27
2023-01-25T16:05:20.383Z,18.00
2023-01-25T16:07:47.796Z,17.55
2023-01-25T16:10:24.199Z,15.85
2023-01-25T16:12:51.599Z,15.70
2023-01-25T16:15:18.992Z,14.93
2023-01-25T16:17:46.422Z,14.25
2023-01-25T16:20:20.558Z,13.93
2023-01-25T16:22:48.096Z,13.75
2023-01-25T16:25:15.633Z,13.60
2023-01-25T16:27:44.334Z,12.40
2023-01-25T16:30:18.493Z,12.52
2023-01-25T16:32:46.570Z,11.88
2023-01-25T16:35:14.277Z,10.68
2023-01-25T16:37:41.645Z,10.50
2023-01-25T16:40:15.928Z,10.65
2023-01-25T16:42:44.763Z,10.50
2023-01-25T16:45:12.230Z,10.15
2023-01-25T16:47:39.897Z,10.23
2023-01-25T16:50:12.833Z,9.68
2023-01-25T16:52:43.445Z,9.32
2023-01-25T16:55:11.984Z,9.25
2023-01-25T16:57:39.397Z,8.73
2023-01-25T17:00:11.328Z,8.98
2023-01-25T17:02:41.932Z,8.27
2023-01-25T17:05:14.268Z,8.60
2023-01-25T17:07:41.633Z,8.65
2023-01-25T17:10:10.806Z,7.78
2023-01-25T17:12:38.492Z,7.93
2023-01-25T17:15:08.629Z,7.93
2023-01-25T17:20:03.913Z,7.90
2023-01-25T17:22:37.140Z,7.82
2023-01-25T17:25:05.044Z,7.47
2023-01-25T17:27:32.488Z,7.30
2023-01-25T17:29:59.884Z,8.07
2023-01-25T17:32:28.645Z,7.03
2023-01-25T17:34:58.917Z,7.32
2023-01-25T17:37:26.348Z,7.05
2023-01-25T17:39:54.056Z,7.07
2023-01-25T17:42:21.974Z,6.90
2023-01-25T17:44:49.399Z,6.80
2023-01-25T17:47:16.788Z,6.47
2023-01-25T17:49:45.509Z,6.45
2023-01-25T17:52:12.972Z,7.05
2023-01-25T17:54:40.874Z,6.45
2023-01-25T17:57:08.299Z,6.25
2023-01-25T17:59:35.685Z,7.10
2023-01-25T18:02:03.964Z,5.50
2023-01-25T18:04:31.400Z,5.88
2023-01-25T18:07:00.579Z,5.55
2023-01-25T18:09:28.052Z,6.43
2023-01-25T18:11:55.430Z,6.50
2023-01-25T18:14:22.851Z,5.63
2023-01-25T18:16:50.431Z,6.55
2023-01-25T18:19:17.841Z,6.13
2023-01-25T18:21:45.331Z,5.40
2023-01-25T18:24:28.208Z,6.97
2023-01-25T18:27:00.193Z,6.07
2023-01-25T18:29:35.809Z,6.15
2023-01-25T18:32:03.269Z,5.28
2023-01-25T18:34:30.677Z,5.90
2023-01-25T18:36:59.222Z,5.32
2023-01-25T18:39:28.071Z,5.00
2023-01-25T18:41:55.538Z,5.72
2023-01-25T18:44:23.035Z,5.45
2023-01-25T18:46:50.455Z,5.90
2023-01-25T18:49:17.826Z,5.80
2023-01-25T18:52:02.175Z,5.75
2023-01-25T18:54:34.405Z,6.28
2023-01-25T18:57:01.787Z,4.90
2023-01-25T18:59:29.229Z,4.90
2023-01-25T19:01:56.636Z,5.40
2023-01-25T19:04:24.137Z,6.07
2023-01-25T19:06:56.591Z,5.72
2023-01-25T19:09:24.375Z,6.05
2023-01-25T19:11:53.114Z,5.03
2023-01-25T19:14:20.558Z,5.65
2023-01-25T19:16:47.971Z,6.00
2023-01-25T19:19:15.400Z,5.95
2023-01-25T19:21:42.927Z,7.60
2023-01-25T19:24:11.156Z,6.18
2023-01-25T19:26:38.582Z,6.15
2023-01-25T19:29:07.265Z,6.70
2023-01-25T19:31:36.569Z,5.93
2023-01-25T19:34:05.355Z,5.90
2023-01-25T19:36:35.309Z,6.03
2023-01-25T19:39:03.051Z,5.80
2023-01-25T19:41:31.238Z,6.20
2023-01-25T19:43:59.753Z,5.80
2023-01-25T19:46:31.054Z,6.03
2023-01-25T19:48:58.707Z,7.43
2023-01-25T19:51:27.383Z,6.80
2023-01-25T19:53:55.623Z,6.22
2023-01-25T19:56:23.062Z,6.78
2023-01-25T19:58:50.755Z,6.88
2023-01-25T20:01:18.881Z,6.72
2023-01-25T20:03:47.803Z,6.28
2023-01-25T20:06:16.238Z,6.38
2023-01-25T20:08:44.581Z,6.90
2023-01-25T20:11:12.802Z,6.63
2023-01-25T20:13:40.228Z,7.10
2023-01-25T20:16:10.266Z,6.72
2023-01-25T20:18:37.739Z,7.22
2023-01-25T20:21:07.468Z,7.13
2023-01-25T20:23:35.291Z,7.60
2023-01-25T20:26:03.546Z,6.60
2023-01-25T20:28:32.658Z,7.30
2023-01-25T20:31:03.694Z,7.45
2023-01-25T20:33:31.314Z,7.60
2023-01-25T20:36:01.779Z,6.75
2023-01-25T20:38:33.575Z,7.60
2023-01-25T20:41:00.981Z,7.65
2023-01-25T20:43:29.493Z,7.78
2023-01-25T20:45:56.955Z,7.80
2023-01-25T20:48:24.425Z,7.53
2023-01-25T20:50:51.832Z,9.07
2023-01-25T20:53:19.275Z,8.15
2023-01-25T20:55:54.729Z,7.15
2023-01-25T20:58:22.162Z,8.73
2023-01-25T21:00:49.634Z,8.63
2023-01-25T21:03:17.109Z,8.35
2023-01-25T21:05:49.959Z,7.82
2023-01-25T21:08:17.801Z,7.45
2023-01-25T21:10:50.432Z,8.38
2023-01-25T21:13:17.914Z,8.30
2023-01-25T21:15:45.427Z,8.38
2023-01-25T21:18:12.848Z,8.48
2023-01-25T21:20:40.348Z,9.02
2023-01-25T21:23:07.797Z,9.73
2023-01-25T21:25:35.185Z,8.30
2023-01-25T21:28:03.978Z,8.73
2023-01-25T21:30:31.666Z,8.65
2023-01-25T21:32:59.148Z,9.13
2023-01-25T21:35:26.568Z,8.85
2023-01-25T21:37:54.030Z,8.30
2023-01-25T21:40:21.442Z,8.82
2023-01-25T21:42:48.858Z,8.55
2023-01-25T21:45:35.308Z,9.82
2023-01-25T21:48:02.722Z,8.75
2023-01-25T21:50:47.585Z,9.65
2023-01-25T21:53:14.978Z,9.48
2023-01-25T21:55:42.367Z,10.85
2023-01-25T21:58:09.759Z,10.15
2023-01-25T22:00:38.515Z,10.27
2023-01-25T22:03:05.892Z,9.43
2023-01-25T22:05:33.324Z,11.40
2023-01-25T22:08:00.693Z,10.85
2023-01-25T22:10:28.096Z,10.23
2023-01-25T22:12:55.494Z,11.68
2023-01-25T22:15:22.865Z,11.50
2023-01-25T22:17:51.556Z,11.13
2023-01-25T22:20:18.929Z,11.35
2023-01-25T22:22:46.297Z,13.32
2023-01-25T22:25:13.671Z,12.32
2023-01-25T22:27:46.501Z,11.55
2023-01-25T22:30:14.296Z,12.93
2023-01-25T22:32:41.745Z,13.45
2023-01-25T22:35:10.688Z,12.57
2023-01-25T22:37:38.556Z,13.40
2023-01-25T22:40:07.752Z,13.73
2023-01-25T22:42:35.884Z,9.30
2023-01-25T22:45:03.269Z,13.73
2023-01-25T22:47:30.688Z,14.55
2023-01-25T22:49:58.069Z,14.32
2023-01-25T22:52:26.779Z,15.45
2023-01-25T22:54:54.157Z,15.10
2023-01-25T22:57:21.566Z,16.38
2023-01-25T22:59:48.965Z,15.40
2023-01-25T23:02:16.348Z,16.63
2023-01-25T23:04:43.923Z,15.80
2023-01-25T23:07:18.788Z,16.80
2023-01-25T23:09:51.207Z,16.13
2023-01-25T23:12:18.615Z,15.48
2023-01-25T23:14:51.160Z,18.10
2023-01-25T23:17:36.302Z,18.38
2023-01-25T23:20:03.791Z,17.00
2023-01-25T23:22:31.201Z,19.23
2023-01-25T23:24:59.908Z,18.75
2023-01-25T23:27:27.286Z,20.55
2023-01-25T23:29:54.660Z,22.10
2023-01-25T23:32:22.089Z,21.08
2023-01-25T23:34:52.994Z,21.98
2023-01-25T23:37:22.513Z,22.48
2023-01-25T23:39:50.316Z,24.30
2023-01-25T23:42:19.097Z,24.45
2023-01-25T23:44:46.532Z,24.80
2023-01-25T23:47:13.955Z,25.33
2023-01-25T23:49:41.676Z,25.23
2023-01-25T23:52:09.071Z,26.40
2023-01-25T23:54:36.467Z,27.35
2023-01-25T23:57:03.903Z,28.08
2023-01-25T23:59:32.590Z,28.58
